Time;durP1;ratioP1;P1;durP2;ratioP2;P2;SDS_P1;SDS_P2;PMS_P1;PMS_P2;Temp;Humidity;BMP_temperature;BMP_pressure;BME280_temperature;BME280_humidity;BME280_pressure;Samples;Min_cycle;Max_cycle;Signal;HPM_P1;HPM_P2
2022/10/25 00:01:28;;;;;;;24.60;18.15;;;;;;;12.25;77.25;100642.91;1813620;77;21085;-58
2022/10/25 00:03:55;;;;;;;26.05;19.25;;;;;;;12.24;77.21;100642.53;1819207;78;21042;-58
2022/10/25 00:06:23;;;;;;;24.20;18.07;;;;;;;12.28;77.10;100635.69;1819335;78;21561;-58
2022/10/25 00:08:50;;;;;;;23.52;18.17;;;;;;;12.31;77.03;100632.80;1825047;78;21030;-58
2022/10/25 00:11:26;;;;;;;23.42;18.40;;;;;;;12.29;77.11;100627.65;1824567;78;21448;-58
2022/10/25 00:13:56;;;;;;;25.30;19.50;;;;;;;12.28;77.21;100624.64;1820019;77;21002;-58
2022/10/25 00:16:27;;;;;;;21.40;17.20;;;;;;;12.23;77.14;100614.95;1825269;77;20969;-58
2022/10/25 00:18:56;;;;;;;20.10;17.05;;;;;;;12.20;77.00;100602.02;1827914;77;20997;-58
2022/10/25 00:21:23;;;;;;;23.07;17.92;;;;;;;12.20;76.85;100615.20;1824500;77;21038;-58
2022/10/25 00:23:50;;;;;;;25.97;19.75;;;;;;;12.18;76.83;100612.69;1825117;78;21839;-58
2022/10/25 00:26:17;;;;;;;25.50;18.92;;;;;;;12.13;76.86;100611.41;1826018;77;21051;-58
2022/10/25 00:28:43;;;;;;;22.67;18.10;;;;;;;12.06;76.98;100601.85;1831029;78;20961;-58
2022/10/25 00:31:13;;;;;;;22.98;16.67;;;;;;;12.01;76.90;100600.91;1819426;78;21029;-58
2022/10/25 00:33:40;;;;;;;21.62;17.48;;;;;;;12.01;76.76;100602.23;1823688;78;20976;-58
2022/10/25 00:36:16;;;;;;;23.80;17.95;;;;;;;11.99;76.72;100597.56;1824448;77;21220;-58
2022/10/25 00:38:45;;;;;;;21.42;17.27;;;;;;;11.94;76.83;100605.02;1828720;78;21030;-58
2022/10/25 00:41:14;;;;;;;24.05;16.40;;;;;;;11.88;77.10;100601.07;1830039;78;21683;-58
2022/10/25 00:43:46;;;;;;;28.87;17.07;;;;;;;11.88;77.17;100598.89;1831005;78;21096;-58
2022/10/25 00:46:22;;;;;;;23.92;17.20;;;;;;;11.89;76.85;100591.35;1823899;78;21035;-58
2022/10/25 00:49:10;;;;;;;;;;;;;;;11.86;76.72;100586.33;1829995;78;21138;-58
2022/10/25 00:51:41;;;;;;;22.22;17.30;;;;;;;11.80;76.94;100585.50;1825017;78;20124;-58
2022/10/25 00:54:08;;;;;;;21.48;17.10;;;;;;;11.73;77.14;100583.02;1828779;78;21105;-58
2022/10/25 00:56:37;;;;;;;24.05;17.70;;;;;;;11.68;77.19;100585.56;1819448;78;21058;-58
2022/10/25 00:59:07;;;;;;;21.12;16.65;;;;;;;11.71;77.14;100577.38;1828107;78;21042;-58
2022/10/25 01:01:33;;;;;;;24.57;17.60;;;;;;;11.76;77.19;100583.59;1825608;78;22147;-58
2022/10/25 01:04:04;;;;;;;22.05;17.27;;;;;;;11.78;77.37;100584.30;1826330;78;21114;-58
2022/10/25 01:06:37;;;;;;;23.12;16.97;;;;;;;11.78;77.50;100590.06;1821976;77;21067;-58
2022/10/25 01:09:08;;;;;;;20.00;15.72;;;;;;;11.76;77.61;100588.05;1830889;77;21043;-58
2022/10/25 01:11:36;;;;;;;22.50;15.95;;;;;;;11.77;77.53;100581.80;1823157;77;21461;-58
2022/10/25 01:14:05;;;;;;;20.05;15.40;;;;;;;11.86;77.54;100584.52;1820735;78;21201;-58
2022/10/25 01:16:54;;;;;;;22.02;16.00;;;;;;;11.94;77.32;100587.88;1823177;77;21095;-58
2022/10/25 01:19:55;;;;;;;21.40;17.25;;;;;;;11.94;77.26;100583.10;1830974;78;21004;-58
2022/10/25 01:22:48;;;;;;;18.35;16.25;;;;;;;11.87;77.34;100580.92;1811079;78;20983;-58
2022/10/25 01:25:45;;;;;;;23.80;17.05;;;;;;;11.81;77.42;100565.60;1824513;77;22206;-58
2022/10/25 01:28:37;;;;;;;18.25;15.50;;;;;;;11.77;77.42;100568.61;1825494;78;27360;-58
2022/10/25 01:31:41;;;;;;;23.62;17.50;;;;;;;11.79;77.32;100556.16;1816779;78;21023;-59
2022/10/25 01:34:32;;;;;;;22.85;17.95;;;;;;;11.77;77.46;100547.52;1817145;78;21574;-59
2022/10/25 01:37:17;;;;;;;27.77;18.55;;;;;;;11.71;77.83;100542.28;1828791;78;21077;-58
2022/10/25 01:39:59;;;;;;;21.25;17.20;;;;;;;11.66;78.11;100542.66;1821560;78;21569;-59
2022/10/25 01:42:37;;;;;;;21.75;16.62;;;;;;;11.68;78.19;100543.39;1829305;78;22036;-58
2022/10/25 01:45:12;;;;;;;21.20;17.07;;;;;;;11.74;78.13;100536.77;1817818;78;21040;-58
2022/10/25 01:47:43;;;;;;;22.32;16.95;;;;;;;11.77;78.11;100525.97;1826962;78;21424;-58
2022/10/25 01:50:17;;;;;;;23.45;17.50;;;;;;;11.79;78.11;100525.84;1823731;78;21117;-58
2022/10/25 01:52:44;;;;;;;20.37;16.65;;;;;;;11.74;78.16;100534.62;1812248;78;21026;-58
2022/10/25 01:55:11;;;;;;;21.00;16.75;;;;;;;11.68;78.28;100538.12;1821498;78;21841;-58
2022/10/25 01:57:57;;;;;;;23.32;17.00;;;;;;;11.66;78.18;100540.51;1823688;78;21031;-58
2022/10/25 02:00:24;;;;;;;25.08;17.52;;;;;;;11.66;77.91;100534.74;1815280;78;21022;-58
2022/10/25 02:03:28;;;;;;;22.58;16.77;;;;;;;11.67;77.89;100535.60;1783751;79;21099;-58
2022/10/25 02:06:24;;;;;;;21.23;17.45;;;;;;;11.62;77.85;100532.02;1818334;78;21109;-58
2022/10/25 02:09:06;;;;;;;21.40;16.12;;;;;;;11.56;77.88;100535.14;1756649;78;21949;-58
2022/10/25 02:11:32;;;;;;;23.27;17.42;;;;;;;11.50;77.62;100536.50;1828238;78;21037;-58
2022/10/25 02:14:22;;;;;;;22.80;16.52;;;;;;;11.48;77.45;100540.20;1820139;78;21030;-58
2022/10/25 02:17:06;;;;;;;21.70;16.42;;;;;;;11.42;77.42;100540.72;1827013;78;21124;-58
2022/10/25 02:19:42;;;;;;;24.07;17.13;;;;;;;11.32;77.47;100544.58;1832007;78;21028;-58
2022/10/25 02:22:09;;;;;;;24.37;17.02;;;;;;;11.24;77.68;100546.98;1820233;78;23105;-58
2022/10/25 02:24:37;;;;;;;20.52;15.90;;;;;;;11.17;77.72;100545.32;1826089;77;21657;-58
2022/10/25 02:27:04;;;;;;;19.45;15.43;;;;;;;11.18;77.70;100547.01;1828996;77;21582;-58
2022/10/25 02:29:31;;;;;;;19.80;15.60;;;;;;;11.23;77.60;100547.94;1829931;78;21341;-58
2022/10/25 02:31:58;;;;;;;18.25;15.40;;;;;;;11.18;77.41;100548.78;1825684;77;20995;-59
2022/10/25 02:34:25;;;;;;;20.65;15.45;;;;;;;11.10;77.40;100546.78;1825208;77;21230;-58
2022/10/25 02:36:52;;;;;;;21.85;15.50;;;;;;;11.02;77.44;100547.38;1824421;77;21010;-58
2022/10/25 02:39:22;;;;;;;19.02;15.35;;;;;;;10.94;77.36;100548.00;1819118;78;21123;-58
2022/10/25 02:41:49;;;;;;;18.35;14.05;;;;;;;10.90;77.13;100549.19;1824245;78;21001;-58
2022/10/25 02:44:16;;;;;;;16.93;14.35;;;;;;;10.87;76.77;100545.47;1820109;78;21516;-58
2022/10/25 02:46:42;;;;;;;22.67;14.85;;;;;;;10.85;76.69;100550.52;1813622;78;21215;-58
2022/10/25 02:49:09;;;;;;;20.20;16.25;;;;;;;10.78;76.70;100545.72;1832678;78;21597;-58
2022/10/25 02:51:35;;;;;;;28.02;19.60;;;;;;;10.70;76.51;100550.75;1825236;78;21033;-58
2022/10/25 02:54:03;;;;;;;29.85;20.40;;;;;;;10.64;76.77;100565.72;1825924;78;21123;-58
2022/10/25 02:56:29;;;;;;;26.95;18.82;;;;;;;10.66;77.22;100555.91;1819763;78;21060;-58
2022/10/25 02:58:57;;;;;;;22.58;17.05;;;;;;;10.71;77.24;100555.06;1829614;78;21236;-58
2022/10/25 03:01:24;;;;;;;22.10;14.85;;;;;;;10.76;77.27;100557.34;1822427;78;21043;-58
2022/10/25 03:03:50;;;;;;;19.32;13.85;;;;;;;10.80;77.39;100557.45;1810965;78;21058;-58
2022/10/25 03:06:18;;;;;;;20.10;14.95;;;;;;;10.80;77.54;100549.55;1823523;78;20983;-58
2022/10/25 03:08:45;;;;;;;17.27;14.73;;;;;;;10.76;77.70;100551.59;1804290;78;21063;-58
2022/10/25 03:11:12;;;;;;;19.52;14.28;;;;;;;10.75;77.68;100546.44;1827502;78;21232;-58
2022/10/25 03:13:38;;;;;;;20.35;15.63;;;;;;;10.81;77.73;100549.92;1830833;78;21020;-58
2022/10/25 03:16:07;;;;;;;20.05;14.70;;;;;;;10.85;77.62;100547.39;1831653;78;21022;-58
2022/10/25 03:18:34;;;;;;;18.30;14.75;;;;;;;10.86;77.65;100545.13;1829721;78;21050;-60
2022/10/25 03:21:03;;;;;;;20.88;16.32;;;;;;;10.83;77.74;100541.91;1822288;77;21026;-58
2022/10/25 03:23:29;;;;;;;20.55;15.45;;;;;;;10.78;77.76;100531.24;1833982;78;21186;-58
2022/10/25 03:25:58;;;;;;;19.15;15.53;;;;;;;10.76;77.73;100530.53;1820806;78;21036;-58
2022/10/25 03:28:26;;;;;;;19.42;16.40;;;;;;;10.81;77.67;100527.55;1818048;78;21088;-58
2022/10/25 03:30:54;;;;;;;23.12;17.92;;;;;;;10.82;77.55;100534.95;1821211;78;21007;-58
2022/10/25 03:33:20;;;;;;;21.70;17.52;;;;;;;10.79;77.62;100526.81;1814815;77;21093;-58
2022/10/25 03:35:51;;;;;;;30.45;17.37;;;;;;;10.76;77.63;100528.39;1817691;78;21227;-58
2022/10/25 03:38:17;;;;;;;20.25;16.45;;;;;;;10.75;77.68;100535.92;1816068;78;21514;-58
2022/10/25 03:40:44;;;;;;;22.10;17.15;;;;;;;10.81;77.50;100536.77;1834177;78;21704;-58
2022/10/25 03:43:11;;;;;;;21.17;18.00;;;;;;;10.84;77.53;100539.13;1824743;78;21740;-58
2022/10/25 03:45:37;;;;;;;23.18;18.60;;;;;;;10.86;77.70;100545.13;1824050;77;21023;-58
2022/10/25 03:48:06;;;;;;;24.02;19.12;;;;;;;10.86;78.01;100542.50;1822478;78;21024;-58
2022/10/25 03:50:34;;;;;;;19.30;16.50;;;;;;;10.91;78.12;100543.43;1819693;78;20983;-58
2022/10/25 03:53:02;;;;;;;21.10;17.80;;;;;;;10.97;78.00;100537.20;1820920;77;21089;-58
2022/10/25 03:55:29;;;;;;;21.12;17.48;;;;;;;11.03;77.90;100533.27;1813741;77;21025;-58
2022/10/25 03:57:55;;;;;;;22.80;18.17;;;;;;;11.07;77.98;100529.41;1800966;77;21440;-58
2022/10/25 04:00:21;;;;;;;23.00;17.90;;;;;;;11.08;78.20;100535.05;1818957;77;21107;-58
2022/10/25 04:02:54;;;;;;;20.23;16.67;;;;;;;11.08;78.11;100528.47;1809486;78;20970;-58
2022/10/25 04:05:21;;;;;;;23.20;17.98;;;;;;;11.08;77.94;100531.09;1754801;81;21006;-58
2022/10/25 04:07:47;;;;;;;22.45;18.42;;;;;;;11.13;77.81;100525.47;1745600;81;21061;-58
2022/10/25 04:10:14;;;;;;;19.95;17.57;;;;;;;11.17;77.71;100521.62;1752029;81;21071;-58
2022/10/25 04:12:40;;;;;;;21.68;17.65;;;;;;;11.17;77.78;100518.16;1773737;80;21130;-58
2022/10/25 04:15:09;;;;;;;22.15;17.05;;;;;;;11.13;77.80;100518.89;1781051;80;21027;-58
2022/10/25 04:17:36;;;;;;;21.02;17.48;;;;;;;11.14;77.83;100523.17;1780436;80;21541;-58
2022/10/25 04:20:05;;;;;;;20.88;16.52;;;;;;;11.20;77.71;100522.69;1782916;80;21053;-58
2022/10/25 04:22:33;;;;;;;19.45;16.42;;;;;;;11.25;77.64;100519.20;1761830;79;21016;-58
2022/10/25 04:24:59;;;;;;;21.80;17.67;;;;;;;11.27;77.66;100514.64;1782779;80;21244;-58
2022/10/25 04:27:26;;;;;;;20.92;16.52;;;;;;;11.26;77.62;100510.81;1777761;80;21005;-58
2022/10/25 04:31:04;;;;;;;20.00;16.60;;;;;;;11.12;78.43;100495.64;1799551;79;22613;-58
2022/10/25 04:33:31;;;;;;;22.65;16.15;;;;;;;11.23;77.85;100507.97;1770997;80;21148;-59
2022/10/25 04:35:58;;;;;;;22.50;16.97;;;;;;;11.28;77.80;100508.89;1776334;80;21249;-59
2022/10/25 04:38:24;;;;;;;19.98;16.62;;;;;;;11.31;77.86;100504.23;1763302;80;21524;-59
2022/10/25 04:40:55;;;;;;;21.15;16.95;;;;;;;11.29;78.06;100504.81;1762955;80;21097;-59
2022/10/25 04:43:22;;;;;;;20.15;16.12;;;;;;;11.28;78.29;100507.11;1720168;81;21067;-59
2022/10/25 04:45:49;;;;;;;18.15;14.98;;;;;;;11.29;78.32;100507.45;1711204;83;21146;-57
2022/10/25 04:48:16;;;;;;;19.62;16.23;;;;;;;11.36;78.20;100505.64;1696489;83;21246;-57
2022/10/25 04:50:42;;;;;;;18.10;15.98;;;;;;;11.38;78.11;100501.94;1694431;83;21017;-57
2022/10/25 04:53:09;;;;;;;20.95;17.15;;;;;;;11.38;78.12;100498.44;1719495;82;21079;-58
2022/10/25 04:55:35;;;;;;;20.57;17.45;;;;;;;11.36;78.35;100504.33;1719644;81;21060;-58
2022/10/25 04:58:03;;;;;;;20.70;16.75;;;;;;;11.34;78.62;100503.95;1727365;81;21074;-57
2022/10/25 05:00:31;;;;;;;18.90;15.18;;;;;;;11.35;78.75;100499.55;1707792;81;21261;-58
2022/10/25 05:02:57;;;;;;;19.65;15.68;;;;;;;11.42;78.71;100501.20;1712285;82;21097;-58
2022/10/25 05:05:24;;;;;;;19.10;15.55;;;;;;;11.48;78.73;100498.05;1740695;81;21015;-58
2022/10/25 05:07:51;;;;;;;22.60;17.17;;;;;;;11.51;78.72;100505.21;1704314;83;21055;-58
2022/10/25 05:10:18;;;;;;;20.25;16.75;;;;;;;11.54;78.99;100504.14;1708109;83;21086;-58
2022/10/25 05:12:45;;;;;;;24.00;18.23;;;;;;;11.55;78.98;100507.14;1711308;83;22157;-58
2022/10/25 05:15:11;;;;;;;23.67;17.27;;;;;;;11.56;78.86;100505.33;1707286;83;21626;-58
2022/10/25 05:17:39;;;;;;;24.37;18.65;;;;;;;11.59;78.77;100507.23;1706537;83;21636;-58
2022/10/25 05:20:07;;;;;;;45.30;20.80;;;;;;;11.65;78.71;100501.46;1709019;83;21020;-58
2022/10/25 05:22:33;;;;;;;28.00;17.70;;;;;;;11.75;78.21;100500.22;1709959;83;21596;-58
2022/10/25 05:25:00;;;;;;;20.30;17.05;;;;;;;11.70;78.16;100496.64;1706695;83;22458;-58
2022/10/25 05:27:27;;;;;;;22.40;16.20;;;;;;;11.69;78.29;100504.19;1705703;83;21119;-58
2022/10/25 05:29:53;;;;;;;18.12;15.18;;;;;;;11.71;78.21;100502.74;1688324;84;21036;-58
2022/10/25 05:32:20;;;;;;;19.42;14.78;;;;;;;11.77;77.96;100500.06;1682566;83;21055;-58
2022/10/25 05:34:46;;;;;;;21.65;16.82;;;;;;;11.84;77.96;100502.56;1751060;81;21082;-58
2022/10/25 05:37:13;;;;;;;20.23;15.48;;;;;;;11.88;78.03;100500.02;1749506;81;21129;-58
2022/10/25 05:39:41;;;;;;;25.15;17.25;;;;;;;11.90;78.25;100502.03;1746687;81;21058;-58
2022/10/25 05:42:07;;;;;;;23.32;16.40;;;;;;;11.92;78.38;100500.63;1752814;81;21001;-58
2022/10/25 05:44:34;;;;;;;26.65;15.88;;;;;;;11.96;78.32;100502.88;1748525;81;21178;-58
2022/10/25 05:47:00;;;;;;;19.17;16.37;;;;;;;12.03;78.00;100493.97;1747358;81;21011;-58
2022/10/25 05:49:27;;;;;;;18.95;16.02;;;;;;;12.07;77.84;100498.87;1746542;81;21251;-58
2022/10/25 05:51:54;;;;;;;21.17;17.15;;;;;;;12.11;77.85;100503.39;1747475;81;21004;-58
2022/10/25 05:54:22;;;;;;;20.88;16.67;;;;;;;12.08;77.90;100500.52;1746088;81;21073;-58
2022/10/25 05:56:48;;;;;;;19.05;16.10;;;;;;;12.08;78.01;100501.02;1748046;81;21051;-58
2022/10/25 05:59:15;;;;;;;22.85;16.42;;;;;;;12.12;77.95;100502.91;1747381;81;21061;-58
2022/10/25 06:01:43;;;;;;;20.77;16.73;;;;;;;12.17;77.83;100504.66;1758500;81;21237;-58
2022/10/25 06:04:10;;;;;;;26.40;17.05;;;;;;;12.22;77.74;100507.75;1748367;81;21343;-58
2022/10/25 06:06:38;;;;;;;21.23;16.95;;;;;;;12.29;77.88;100505.42;1743083;81;21071;-58
2022/10/25 06:09:05;;;;;;;23.75;17.42;;;;;;;12.33;78.00;100509.48;1747496;81;21070;-59
2022/10/25 06:11:32;;;;;;;25.95;16.77;;;;;;;12.38;78.09;100508.61;1748731;81;21577;-58
2022/10/25 06:13:59;;;;;;;19.17;15.35;;;;;;;12.45;78.05;100500.02;1746723;81;21140;-59
2022/10/25 06:16:27;;;;;;;19.60;16.25;;;;;;;12.52;77.66;100498.17;1745333;81;21030;-58
2022/10/25 06:18:54;;;;;;;22.25;17.50;;;;;;;12.57;77.53;100504.72;1747460;81;21044;-58
2022/10/25 06:21:26;;;;;;;21.48;16.75;;;;;;;12.64;77.50;100503.70;1749219;81;21070;-58
2022/10/25 06:23:55;;;;;;;18.90;15.18;;;;;;;12.63;77.35;100503.38;1746001;81;21533;-58
2022/10/25 06:26:24;;;;;;;19.25;15.72;;;;;;;12.60;77.29;100495.22;1746919;81;22140;-58
2022/10/25 06:28:54;;;;;;;20.48;15.60;;;;;;;12.62;77.28;100495.95;1749346;81;21069;-58
2022/10/25 06:31:20;;;;;;;17.40;13.98;;;;;;;12.73;77.13;100492.36;1754949;80;21086;-58
2022/10/25 06:33:48;;;;;;;20.27;15.55;;;;;;;12.78;76.90;100490.14;1754678;80;21598;-58
2022/10/25 06:36:17;;;;;;;19.37;16.02;;;;;;;12.86;76.78;100483.34;1746510;80;21584;-58
2022/10/25 06:38:44;;;;;;;22.58;16.82;;;;;;;12.88;76.86;100492.82;1752104;80;21084;-58
2022/10/25 06:41:15;;;;;;;19.70;16.15;;;;;;;12.92;76.95;100494.70;1749373;80;21077;-58
2022/10/25 06:43:41;;;;;;;18.70;16.07;;;;;;;13.01;76.88;100498.69;1763804;80;21035;-58
2022/10/25 06:46:28;;;;;;;21.20;16.10;;;;;;;13.15;76.55;100498.78;1755440;80;21018;-58
2022/10/25 06:48:56;;;;;;;27.30;16.23;;;;;;;13.24;76.17;100498.44;1746958;80;22232;-57
2022/10/25 06:51:23;;;;;;;21.33;16.93;;;;;;;13.28;76.05;100492.39;1745614;80;21234;-57
2022/10/25 06:53:58;;;;;;;20.17;16.15;;;;;;;13.32;75.86;100489.86;1751487;80;20997;-57
2022/10/25 06:56:26;;;;;;;20.12;15.35;;;;;;;13.33;75.59;100492.84;1752736;80;21047;-58
2022/10/25 06:58:53;;;;;;;19.10;15.10;;;;;;;13.38;75.21;100494.11;1756851;80;21602;-58
2022/10/25 07:01:21;;;;;;;23.60;15.25;;;;;;;13.49;74.94;100499.73;1748175;80;21099;-58
2022/10/25 07:03:49;;;;;;;20.97;15.90;;;;;;;13.54;74.50;100493.55;1753091;80;21324;-58
2022/10/25 07:06:26;;;;;;;23.15;16.70;;;;;;;13.58;74.16;100495.91;1757829;80;21067;-58
2022/10/25 07:08:57;;;;;;;20.92;15.75;;;;;;;13.56;74.05;100496.88;1754126;80;21058;-58
2022/10/25 07:11:27;;;;;;;21.35;14.87;;;;;;;13.56;73.98;100487.63;1752196;80;22139;-58
2022/10/25 07:13:57;;;;;;;18.75;14.60;;;;;;;13.61;73.94;100480.61;1756282;80;21073;-58
2022/10/25 07:16:23;;;;;;;17.17;13.62;;;;;;;13.72;73.56;100483.60;1698331;82;21845;-58
2022/10/25 07:18:50;;;;;;;17.82;14.40;;;;;;;13.83;73.16;100481.28;1699500;82;21094;-58
2022/10/25 07:21:21;;;;;;;20.35;14.93;;;;;;;13.95;72.86;100472.20;1747530;80;21064;-58
2022/10/25 07:23:49;;;;;;;19.15;14.80;;;;;;;14.04;72.79;100471.86;1752786;80;21067;-58
2022/10/25 07:26:21;;;;;;;17.32;14.78;;;;;;;14.13;72.26;100478.42;1751009;80;21562;-58
2022/10/25 07:28:49;;;;;;;22.67;14.87;;;;;;;14.15;71.96;100480.10;1748915;80;21108;-59
2022/10/25 07:31:22;;;;;;;18.07;14.35;;;;;;;14.15;71.98;100475.63;1697306;83;21538;-59
2022/10/25 07:33:50;;;;;;;19.67;14.60;;;;;;;14.22;71.75;100462.19;1754299;80;21113;-59
2022/10/25 07:36:17;;;;;;;18.87;15.13;;;;;;;14.31;71.44;100457.84;1754984;80;21057;-59
2022/10/25 07:38:44;;;;;;;20.10;15.28;;;;;;;14.47;70.83;100459.38;1745565;80;21037;-59
2022/10/25 07:41:11;;;;;;;19.62;15.45;;;;;;;14.54;70.57;100456.98;1746680;80;21234;-59
2022/10/25 07:43:38;;;;;;;18.55;15.65;;;;;;;14.58;70.24;100467.61;1745558;80;21059;-57
2022/10/25 07:46:05;;;;;;;18.73;13.75;;;;;;;14.59;69.92;100464.02;1752187;80;21130;-56
2022/10/25 07:48:32;;;;;;;19.67;12.88;;;;;;;14.65;69.73;100454.14;1753505;80;21036;-58
2022/10/25 07:51:06;;;;;;;19.17;14.13;;;;;;;14.76;69.32;100457.56;1747979;80;21039;-58
2022/10/25 07:53:33;;;;;;;18.87;13.35;;;;;;;14.79;69.08;100455.48;1752160;80;22152;-58
2022/10/25 07:56:00;;;;;;;19.07;14.23;;;;;;;14.81;68.80;100453.52;1699678;84;21101;-58
2022/10/25 07:58:26;;;;;;;17.55;14.20;;;;;;;14.83;68.53;100458.66;1753012;80;21068;-58
2022/10/25 08:01:01;;;;;;;18.57;14.23;;;;;;;14.84;68.28;100455.88;1699360;83;21047;-58
2022/10/25 08:03:28;;;;;;;16.67;13.22;;;;;;;14.84;67.98;100448.39;1752622;80;21112;-58
2022/10/25 08:05:55;;;;;;;18.27;13.60;;;;;;;14.85;67.74;100452.72;1753890;80;21757;-58
2022/10/25 08:08:23;;;;;;;18.17;14.05;;;;;;;14.93;67.54;100455.46;1751013;80;21092;-58
2022/10/25 08:10:51;;;;;;;20.90;13.78;;;;;;;15.01;67.17;100450.25;1694246;84;21099;-58
2022/10/25 08:13:18;;;;;;;21.10;13.88;;;;;;;15.01;67.12;100450.72;1705933;83;21558;-58
2022/10/25 08:15:51;;;;;;;17.17;13.98;;;;;;;15.01;67.22;100451.58;1710170;83;21023;-58
2022/10/25 08:18:19;;;;;;;19.48;12.73;;;;;;;15.05;67.29;100449.45;1705929;83;21149;-57
2022/10/25 08:20:46;;;;;;;19.05;13.18;;;;;;;15.09;67.17;100450.80;1759268;80;21435;-57
2022/10/25 08:23:13;;;;;;;16.90;13.50;;;;;;;15.18;66.86;100446.41;1747144;80;21350;-57
2022/10/25 08:25:40;;;;;;;17.95;13.50;;;;;;;15.23;66.71;100442.34;1751283;80;21047;-58
2022/10/25 08:28:06;;;;;;;17.00;12.93;;;;;;;15.26;66.62;100437.21;1755489;80;21005;-57
2022/10/25 08:30:33;;;;;;;20.55;13.72;;;;;;;15.29;66.54;100436.09;1758813;80;21226;-57
2022/10/25 08:33:00;;;;;;;17.30;13.70;;;;;;;15.27;66.50;100432.27;1768546;80;21055;-58
2022/10/25 08:35:27;;;;;;;16.85;12.35;;;;;;;15.28;66.34;100432.62;1755537;80;21043;-57
2022/10/25 08:37:53;;;;;;;16.10;13.43;;;;;;;15.31;66.34;100434.11;1758518;80;21051;-57
2022/10/25 08:40:23;;;;;;;17.90;12.63;;;;;;;15.35;66.28;100434.98;1760049;80;21047;-58
2022/10/25 08:43:13;;;;;;;16.52;13.65;;;;;;;15.38;66.37;100434.69;1701211;83;21238;-58
2022/10/25 08:45:53;;;;;;;16.00;12.65;;;;;;;15.41;66.61;100430.37;1756671;80;21051;-57
2022/10/25 08:48:27;;;;;;;17.82;13.38;;;;;;;15.45;66.68;100434.05;1752467;80;21047;-58
2022/10/25 08:50:57;;;;;;;18.42;12.98;;;;;;;15.45;66.56;100428.28;1757059;80;21529;-58
2022/10/25 08:53:29;;;;;;;16.07;13.00;;;;;;;15.47;66.56;100435.58;1762349;80;21095;-58
2022/10/25 08:55:55;;;;;;;15.75;11.88;;;;;;;15.51;66.49;100438.25;1780705;80;21257;-58
2022/10/25 08:58:36;;;;;;;16.35;13.28;;;;;;;15.57;66.22;100436.32;1779856;80;21008;-58
2022/10/25 09:01:13;;;;;;;16.97;13.58;;;;;;;15.64;66.14;100439.19;1778534;80;21078;-57
2022/10/25 09:03:40;;;;;;;15.35;11.93;;;;;;;15.65;65.99;100438.69;1769219;80;21106;-58
2022/10/25 09:06:21;;;;;;;14.87;12.18;;;;;;;15.65;65.89;100443.99;1759729;80;21082;-58
2022/10/25 09:09:24;;;;;;;15.68;11.93;;;;;;;15.68;65.71;100442.36;1753612;80;21253;-58
2022/10/25 09:11:59;;;;;;;16.02;10.95;;;;;;;15.67;65.56;100444.19;1759085;80;21059;-58
2022/10/25 09:14:45;;;;;;;15.43;10.35;;;;;;;15.66;65.27;100441.19;1754534;80;21064;-58
2022/10/25 09:17:22;;;;;;;14.07;11.10;;;;;;;15.69;65.23;100435.58;1761134;80;21058;-58
2022/10/25 09:20:17;;;;;;;16.40;11.48;;;;;;;15.69;65.22;100432.92;1758346;80;21019;-58
2022/10/25 09:22:49;;;;;;;17.17;11.25;;;;;;;15.67;65.32;100424.77;1762002;80;21136;-58
2022/10/25 09:25:58;;;;;;;13.35;10.80;;;;;;;15.65;65.34;100422.77;1743016;80;21058;-57
2022/10/25 09:28:49;;;;;;;17.65;11.12;;;;;;;15.59;65.50;100412.30;1773874;80;21512;-58
2022/10/25 09:31:21;;;;;;;16.37;9.93;;;;;;;15.56;65.75;100400.67;1763137;80;21465;-58
2022/10/25 09:33:47;;;;;;;14.85;10.63;;;;;;;15.55;65.98;100400.32;1729882;80;21024;-58
2022/10/25 09:36:14;;;;;;;14.83;11.20;;;;;;;15.60;65.79;100399.36;1738441;80;21251;-59
2022/10/25 09:38:51;;;;;;;14.30;10.75;;;;;;;15.64;65.66;100391.45;1736200;81;21112;-59
2022/10/25 09:41:41;;;;;;;15.20;11.63;;;;;;;15.68;65.69;100388.81;1718299;83;21553;-59
2022/10/25 09:44:21;;;;;;;15.80;11.15;;;;;;;15.75;65.60;100392.55;1742493;80;21574;-59
2022/10/25 09:46:55;;;;;;;13.83;10.72;;;;;;;15.82;65.38;100389.26;1748505;80;20994;-59
2022/10/25 09:49:41;;;;;;;14.35;10.43;;;;;;;15.83;65.20;100393.08;1760994;80;21828;-59
2022/10/25 09:52:42;;;;;;;15.15;10.25;;;;;;;15.87;65.07;100390.94;1694189;80;21505;-59
2022/10/25 09:55:32;;;;;;;18.98;11.10;;;;;;;15.94;64.86;100390.17;1761923;80;21003;-58
2022/10/25 09:58:00;;;;;;;16.02;9.73;;;;;;;15.98;64.74;100381.39;1740947;80;21572;-59
2022/10/25 10:00:27;;;;;;;15.98;10.85;;;;;;;15.97;64.84;100387.70;1741277;80;21052;-58
2022/10/25 10:02:54;;;;;;;14.70;10.75;;;;;;;15.96;64.82;100384.70;1744826;80;21112;-58
2022/10/25 10:05:21;;;;;;;13.58;10.85;;;;;;;15.95;64.75;100383.03;1751192;80;21022;-58
2022/10/25 10:07:49;;;;;;;16.67;9.70;;;;;;;15.89;64.75;100383.68;1747107;80;21742;-58
2022/10/25 10:10:25;;;;;;;16.07;10.00;;;;;;;15.84;65.00;100380.67;1740150;81;21034;-58
2022/10/25 10:13:13;;;;;;;14.35;10.32;;;;;;;15.86;65.10;100383.99;1747977;82;21557;-58
2022/10/25 10:15:54;;;;;;;12.82;9.73;;;;;;;15.86;65.30;100386.64;1747258;81;21230;-58
2022/10/25 10:18:32;;;;;;;14.68;9.93;;;;;;;15.82;65.64;100387.93;1729395;82;21047;-58
2022/10/25 10:21:15;;;;;;;13.40;10.43;;;;;;;15.71;65.97;100384.52;1734945;82;21096;-58
2022/10/25 10:23:52;;;;;;;10.98;9.25;;;;;;;15.62;66.41;100382.83;1740695;80;21096;-59
2022/10/25 10:26:41;;;;;;;14.00;10.35;;;;;;;15.59;66.70;100390.58;1738625;80;21874;-59
2022/10/25 10:29:13;;;;;;;14.38;10.28;;;;;;;15.64;66.78;100382.16;1735762;81;21191;-59
2022/10/25 10:31:45;;;;;;;13.60;10.15;;;;;;;15.65;66.79;100378.54;1755933;80;21028;-59
2022/10/25 10:34:34;;;;;;;13.28;10.15;;;;;;;15.67;66.92;100382.33;1739561;81;21015;-59
2022/10/25 10:37:05;;;;;;;14.38;10.45;;;;;;;15.66;66.93;100383.34;1748504;80;21553;-59
2022/10/25 10:39:31;;;;;;;14.00;10.48;;;;;;;15.61;66.91;100380.64;1744340;80;21523;-59
2022/10/25 10:42:04;;;;;;;12.58;9.25;;;;;;;15.59;66.95;100386.60;1732073;82;21111;-59
2022/10/25 10:44:33;;;;;;;13.32;8.85;;;;;;;15.58;67.05;100381.45;1763448;80;21043;-59
2022/10/25 10:47:04;;;;;;;12.95;8.88;;;;;;;15.55;67.33;100376.45;1769739;80;21056;-59
2022/10/25 10:49:35;;;;;;;15.15;9.85;;;;;;;15.55;67.50;100379.10;1763158;80;21050;-59
2022/10/25 10:52:02;;;;;;;15.23;10.00;;;;;;;15.48;67.81;100376.74;1754584;80;21094;-59
2022/10/25 10:54:35;;;;;;;15.03;9.85;;;;;;;15.42;68.13;100373.72;1763941;80;21094;-59
2022/10/25 10:57:05;;;;;;;12.90;9.58;;;;;;;15.39;68.49;100375.86;1761107;80;21134;-59
2022/10/25 10:59:51;;;;;;;14.93;9.00;;;;;;;15.41;68.54;100375.20;1749829;80;21549;-59
2022/10/25 11:02:23;;;;;;;13.75;8.85;;;;;;;15.43;68.51;100367.92;1766407;80;21075;-58
2022/10/25 11:04:52;;;;;;;13.30;9.50;;;;;;;15.42;68.67;100369.75;1772833;80;21035;-58
2022/10/25 11:07:33;;;;;;;13.10;9.48;;;;;;;15.39;68.79;100366.08;1772066;80;21036;-58
2022/10/25 11:10:21;;;;;;;13.98;9.68;;;;;;;15.36;68.87;100369.03;1763243;80;21773;-57
2022/10/25 11:13:18;;;;;;;13.15;9.33;;;;;;;15.37;68.84;100366.73;1761688;80;21046;-57
2022/10/25 11:16:05;;;;;;;15.58;8.83;;;;;;;15.40;68.91;100358.97;1757887;80;21079;-48
2022/10/25 11:19:23;;;;;;;17.55;9.38;;;;;;;15.52;68.69;100356.90;1762656;80;21035;-48
2022/10/25 11:22:19;;;;;;;11.70;8.83;;;;;;;15.56;68.51;100351.61;1759229;80;21119;-48
2022/10/25 11:25:13;;;;;;;12.73;9.55;;;;;;;15.59;68.37;100355.28;1766354;80;21067;-48
2022/10/25 11:28:15;;;;;;;12.75;8.98;;;;;;;15.57;68.53;100356.76;1758931;80;21093;-48
2022/10/25 11:30:53;;;;;;;15.15;8.60;;;;;;;15.49;68.89;100363.33;1766368;80;21102;-50
2022/10/25 11:33:52;;;;;;;12.95;7.97;;;;;;;15.54;69.23;100360.22;1766211;80;21043;-51